createdAt,value
2023-05-09T00:01:22.183Z,15.85
2023-05-09T00:04:25.130Z,16.17
2023-05-09T00:07:26.998Z,14.60
2023-05-09T00:10:33.564Z,13.15
2023-05-09T00:13:35.796Z,15.63
2023-05-09T00:16:40.998Z,13.57
2023-05-09T00:19:43.689Z,16.83
2023-05-09T00:22:46.432Z,16.13
2023-05-09T00:25:48.228Z,13.88
2023-05-09T00:28:54.697Z,15.77
2023-05-09T00:31:56.772Z,16.63
2023-05-09T00:34:59.366Z,15.45
2023-05-09T00:38:01.240Z,14.87
2023-05-09T00:41:10.911Z,16.60
2023-05-09T00:44:12.879Z,15.77
2023-05-09T00:47:14.738Z,14.70
2023-05-09T00:50:17.006Z,17.70
2023-05-09T00:53:22.983Z,17.30
2023-05-09T00:56:25.505Z,18.65
2023-05-09T00:59:28.592Z,17.43
2023-05-09T01:02:31.618Z,18.23
2023-05-09T01:05:57.124Z,18.92
2023-05-09T01:09:10.448Z,19.17
2023-05-09T01:12:19.178Z,21.17
2023-05-09T01:15:37.959Z,20.30
2023-05-09T01:18:54.533Z,22.02
2023-05-09T01:21:57.892Z,20.60
2023-05-09T01:28:19.101Z,22.30
2023-05-09T01:31:22.189Z,19.90
2023-05-09T01:34:27.352Z,20.00
2023-05-09T01:37:33.031Z,20.15
2023-05-09T01:40:36.340Z,22.90
2023-05-09T01:43:40.579Z,22.58
2023-05-09T01:46:43.802Z,24.90
2023-05-09T01:49:47.612Z,28.02
2023-05-09T01:52:53.208Z,24.65
2023-05-09T01:55:57.652Z,22.98
2023-05-09T01:59:01.002Z,21.90
2023-05-09T02:05:11.358Z,26.63
2023-05-09T02:08:15.151Z,26.48
2023-05-09T02:11:17.105Z,25.05
2023-05-09T02:14:19.121Z,23.73
2023-05-09T02:17:21.683Z,22.27
2023-05-09T02:20:25.081Z,22.13
2023-05-09T02:26:30.067Z,25.90
2023-05-09T02:29:41.734Z,22.45
2023-05-09T02:32:48.379Z,22.95
2023-05-09T02:35:52.395Z,26.55
2023-05-09T02:38:59.208Z,22.75
2023-05-09T02:42:10.338Z,26.95
2023-05-09T02:45:13.157Z,22.42
2023-05-09T02:48:15.346Z,23.63
2023-05-09T02:51:20.357Z,23.10
2023-05-09T02:54:22.168Z,22.88
2023-05-09T02:57:23.953Z,22.30
2023-05-09T03:00:26.106Z,20.52
2023-05-09T03:03:29.521Z,20.73
2023-05-09T03:09:34.857Z,19.38
2023-05-09T03:15:40.374Z,22.65
2023-05-09T03:18:42.223Z,16.90
2023-05-09T03:21:44.874Z,17.15
2023-05-09T03:24:46.654Z,17.10
2023-05-09T03:27:49.190Z,19.33
2023-05-09T03:30:50.979Z,15.90
2023-05-09T03:33:53.851Z,17.00
2023-05-09T03:36:55.870Z,18.67
2023-05-09T03:40:02.361Z,15.38
2023-05-09T03:43:04.330Z,18.08
2023-05-09T03:46:07.974Z,14.68
2023-05-09T03:49:09.944Z,14.18
2023-05-09T03:52:11.908Z,16.58
2023-05-09T03:55:13.972Z,15.52
2023-05-09T03:58:17.013Z,15.63
2023-05-09T04:01:18.870Z,14.75
2023-05-09T04:04:21.147Z,15.10
2023-05-09T04:07:23.285Z,16.08
2023-05-09T04:10:27.351Z,13.45
2023-05-09T04:13:30.132Z,15.20
2023-05-09T04:16:32.204Z,17.88
2023-05-09T04:19:34.014Z,14.50
2023-05-09T04:22:39.543Z,15.25
2023-05-09T04:25:41.621Z,13.20
2023-05-09T04:28:45.022Z,12.02
2023-05-09T04:34:50.106Z,12.15
2023-05-09T04:37:52.153Z,12.20
2023-05-09T04:41:00.371Z,15.98
2023-05-09T04:44:02.327Z,10.07
2023-05-09T04:47:05.868Z,11.73
2023-05-09T04:50:08.440Z,9.27
2023-05-09T04:53:11.066Z,9.43
2023-05-09T04:56:12.840Z,10.90
2023-05-09T04:59:15.399Z,12.77
2023-05-09T05:02:18.721Z,8.77
2023-05-09T05:08:27.348Z,11.07
2023-05-09T05:11:29.132Z,8.88
2023-05-09T05:14:31.319Z,8.88
2023-05-09T05:17:33.430Z,8.88
2023-05-09T05:20:35.450Z,10.48
2023-05-09T05:23:37.242Z,7.65
2023-05-09T05:26:39.134Z,8.75
2023-05-09T05:29:41.110Z,10.02
2023-05-09T05:32:44.139Z,9.25
2023-05-09T05:35:47.543Z,9.07
2023-05-09T05:41:52.104Z,12.25
2023-05-09T05:44:53.946Z,9.55
2023-05-09T05:47:56.348Z,8.60
2023-05-09T05:50:58.358Z,9.40
2023-05-09T05:54:00.182Z,10.13
2023-05-09T05:57:01.960Z,9.50
2023-05-09T06:00:07.739Z,9.48
2023-05-09T06:03:14.308Z,8.07
2023-05-09T06:06:16.392Z,9.45
2023-05-09T06:09:18.424Z,11.95
2023-05-09T06:12:20.368Z,10.73
2023-05-09T06:15:22.220Z,8.60
2023-05-09T06:18:24.727Z,9.57
2023-05-09T06:21:26.721Z,9.80
2023-05-09T06:24:35.938Z,14.27
2023-05-09T06:27:38.671Z,15.85
2023-05-09T06:30:41.449Z,10.65
2023-05-09T06:33:46.335Z,11.15
2023-05-09T06:36:49.068Z,7.55
2023-05-09T06:39:51.020Z,10.27
2023-05-09T06:42:53.121Z,9.57
2023-05-09T06:45:55.106Z,9.73
2023-05-09T06:48:58.481Z,11.45
2023-05-09T06:55:02.960Z,10.02
2023-05-09T06:58:04.844Z,9.05
2023-05-09T07:01:07.038Z,9.57
2023-05-09T07:04:11.043Z,11.48
2023-05-09T07:07:12.880Z,7.75
2023-05-09T07:10:15.213Z,8.32
2023-05-09T07:13:17.217Z,9.25
2023-05-09T07:16:19.101Z,11.27
2023-05-09T07:19:22.557Z,7.10
2023-05-09T07:22:24.631Z,9.27
2023-05-09T07:25:26.482Z,7.35
2023-05-09T07:28:28.276Z,7.82
2023-05-09T07:31:30.456Z,10.63
2023-05-09T07:34:32.681Z,10.88
2023-05-09T07:37:35.188Z,8.13
2023-05-09T07:40:38.721Z,7.67
2023-05-09T07:43:40.575Z,8.55
2023-05-09T07:46:42.720Z,10.63
2023-05-09T07:49:46.589Z,8.60
2023-05-09T07:52:48.327Z,7.68
2023-05-09T07:55:50.280Z,12.98
2023-05-09T07:58:53.704Z,7.00
2023-05-09T08:01:57.381Z,13.30
2023-05-09T08:05:01.909Z,7.95
2023-05-09T08:08:04.679Z,7.35
2023-05-09T08:11:06.690Z,8.55
2023-05-09T08:14:08.600Z,7.72
2023-05-09T08:17:10.406Z,7.32
2023-05-09T08:20:13.286Z,8.50
2023-05-09T08:23:15.252Z,7.93
2023-05-09T08:26:17.267Z,5.95
2023-05-09T08:29:18.992Z,5.03
2023-05-09T08:32:20.980Z,4.50
2023-05-09T08:35:23.507Z,5.85
2023-05-09T08:38:27.103Z,5.17
2023-05-09T08:41:29.329Z,7.85
2023-05-09T08:44:32.169Z,6.05
2023-05-09T08:47:37.377Z,5.00
2023-05-09T08:50:46.397Z,7.57
2023-05-09T08:53:48.730Z,8.93
2023-05-09T08:56:51.327Z,10.70
2023-05-09T08:59:53.492Z,7.93
2023-05-09T09:02:58.623Z,6.88
2023-05-09T09:06:01.480Z,8.98
2023-05-09T09:09:15.585Z,6.20
2023-05-09T09:12:18.272Z,5.68
2023-05-09T09:15:23.909Z,5.90
2023-05-09T09:18:30.135Z,5.20
2023-05-09T09:21:33.099Z,4.70
2023-05-09T09:24:35.923Z,7.53
2023-05-09T09:27:40.261Z,4.35
2023-05-09T09:30:47.610Z,5.65
2023-05-09T09:33:54.564Z,4.90
2023-05-09T09:36:56.625Z,5.30
2023-05-09T09:40:03.277Z,6.03
2023-05-09T09:43:07.468Z,6.25
2023-05-09T09:46:09.945Z,5.70
2023-05-09T09:49:13.315Z,4.67
2023-05-09T09:55:25.306Z,5.47
2023-05-09T09:58:27.568Z,4.50
2023-05-09T10:01:30.023Z,5.25
2023-05-09T10:04:38.885Z,4.73
2023-05-09T10:07:40.831Z,7.20
2023-05-09T10:10:42.881Z,7.13
2023-05-09T10:13:45.845Z,7.47
2023-05-09T10:16:54.582Z,5.97
2023-05-09T10:19:56.947Z,5.95
2023-05-09T10:23:02.799Z,5.22
2023-05-09T10:26:18.561Z,5.18
2023-05-09T10:29:28.343Z,4.88
2023-05-09T10:33:02.753Z,5.55
2023-05-09T10:36:06.454Z,7.20
2023-05-09T10:39:08.456Z,4.93
2023-05-09T10:42:12.507Z,7.47
2023-05-09T10:45:14.806Z,5.30
2023-05-09T10:48:18.609Z,5.73
2023-05-09T10:51:21.581Z,6.65
2023-05-09T10:54:34.242Z,5.32
2023-05-09T10:57:39.673Z,6.95
2023-05-09T11:00:42.579Z,5.30
2023-05-09T11:03:55.724Z,6.53
2023-05-09T11:06:58.186Z,7.10
2023-05-09T11:10:17.843Z,4.57
2023-05-09T11:13:26.193Z,4.40
2023-05-09T11:16:28.332Z,4.40
2023-05-09T11:19:37.879Z,4.53
2023-05-09T11:22:41.519Z,4.70
2023-05-09T11:25:48.641Z,6.30
2023-05-09T11:28:54.335Z,3.13
2023-05-09T11:32:07.333Z,2.60
2023-05-09T11:35:17.112Z,2.53
2023-05-09T11:38:23.833Z,2.28
2023-05-09T11:41:27.030Z,2.78
2023-05-09T11:44:30.936Z,5.20
2023-05-09T11:47:32.749Z,3.45
2023-05-09T11:50:42.015Z,3.95
2023-05-09T11:53:50.513Z,6.35
2023-05-09T11:56:53.864Z,2.97
2023-05-09T12:02:57.676Z,3.00
2023-05-09T12:06:00.283Z,4.20
2023-05-09T12:09:03.945Z,3.90
2023-05-09T12:12:13.581Z,3.03
2023-05-09T12:15:16.901Z,2.42
2023-05-09T12:18:19.358Z,3.78
2023-05-09T12:21:22.144Z,3.05
2023-05-09T12:24:26.975Z,3.17
2023-05-09T12:27:30.579Z,2.15
2023-05-09T12:30:32.713Z,2.67
2023-05-09T12:33:37.240Z,3.67
2023-05-09T12:36:39.116Z,2.80
2023-05-09T12:39:44.051Z,3.78
2023-05-09T12:42:47.040Z,2.42
2023-05-09T12:45:53.588Z,2.13
2023-05-09T12:48:55.724Z,3.60
2023-05-09T12:52:01.106Z,5.45
2023-05-09T12:55:08.028Z,4.50
2023-05-09T12:58:10.141Z,3.25
2023-05-09T13:01:12.356Z,3.92
2023-05-09T13:04:28.842Z,4.32
2023-05-09T13:07:39.553Z,4.47
2023-05-09T13:10:42.146Z,2.22
2023-05-09T13:13:43.976Z,4.23
2023-05-09T13:16:46.278Z,2.78
2023-05-09T13:19:48.155Z,3.17
2023-05-09T13:22:51.833Z,3.17
2023-05-09T13:25:53.716Z,4.20
2023-05-09T13:28:56.810Z,5.18
2023-05-09T13:31:59.123Z,4.97
2023-05-09T13:35:00.875Z,3.33
2023-05-09T13:38:02.647Z,6.43
2023-05-09T13:41:05.647Z,4.35
2023-05-09T13:44:07.693Z,5.43
2023-05-09T13:47:11.859Z,5.57
2023-05-09T13:50:14.298Z,4.65
2023-05-09T13:53:17.047Z,4.10
2023-05-09T13:56:19.527Z,4.40
2023-05-09T13:59:33.148Z,5.07
2023-05-09T14:02:37.148Z,4.10
2023-05-09T14:05:39.839Z,3.60
2023-05-09T14:08:41.628Z,3.85
2023-05-09T14:11:44.251Z,6.78
2023-05-09T14:14:46.226Z,3.15
2023-05-09T14:17:49.648Z,4.82
2023-05-09T14:23:53.268Z,3.35
2023-05-09T14:26:55.043Z,3.72
2023-05-09T14:29:57.524Z,7.53
2023-05-09T14:32:59.589Z,3.83
2023-05-09T14:36:03.690Z,2.88
2023-05-09T14:39:06.344Z,5.00
2023-05-09T14:42:10.413Z,4.78
2023-05-09T14:45:12.793Z,3.10
2023-05-09T14:48:20.732Z,3.47
2023-05-09T14:51:22.456Z,3.80
2023-05-09T14:54:24.226Z,2.55
2023-05-09T14:57:26.115Z,2.45
2023-05-09T15:00:29.109Z,2.65
2023-05-09T15:03:34.515Z,3.03
2023-05-09T15:06:36.642Z,2.88
2023-05-09T15:09:38.623Z,3.30
2023-05-09T15:12:40.594Z,4.55
2023-05-09T15:15:42.629Z,2.35
2023-05-09T15:18:45.989Z,4.30
2023-05-09T15:24:49.569Z,2.97
2023-05-09T15:27:51.524Z,3.35
2023-05-09T15:30:58.533Z,3.25
2023-05-09T15:34:01.415Z,2.90
2023-05-09T15:37:03.523Z,3.92
2023-05-09T15:40:12.004Z,2.15
2023-05-09T15:43:14.655Z,2.72
2023-05-09T15:46:17.145Z,3.67
2023-05-09T15:52:48.405Z,2.28
2023-05-09T15:55:57.285Z,2.90
2023-05-09T15:58:59.417Z,5.43
2023-05-09T16:02:01.414Z,2.15
2023-05-09T16:05:03.268Z,1.15
2023-05-09T16:08:06.014Z,1.75
2023-05-09T16:11:07.983Z,3.30
2023-05-09T16:14:11.874Z,1.70
2023-05-09T16:17:13.774Z,1.65
2023-05-09T16:20:15.887Z,6.65
2023-05-09T16:23:17.950Z,2.63
2023-05-09T16:26:20.660Z,2.63
2023-05-09T16:29:22.807Z,1.25
2023-05-09T16:32:25.033Z,2.00
2023-05-09T16:35:26.885Z,1.65
2023-05-09T16:38:30.390Z,1.80
2023-05-09T16:44:36.964Z,1.30
2023-05-09T16:47:39.063Z,1.55
2023-05-09T16:50:44.319Z,1.30
2023-05-09T16:53:46.234Z,1.75
2023-05-09T16:56:48.178Z,0.57
2023-05-09T16:59:52.422Z,1.17
2023-05-09T17:02:54.648Z,1.55
2023-05-09T17:05:56.524Z,2.33
2023-05-09T17:08:58.280Z,1.23
2023-05-09T17:12:00.609Z,1.38
2023-05-09T17:15:02.493Z,2.22
2023-05-09T17:18:04.886Z,1.77
2023-05-09T17:21:06.973Z,3.20
2023-05-09T17:24:09.648Z,1.60
2023-05-09T17:27:11.638Z,1.80
2023-05-09T17:30:15.068Z,0.75
2023-05-09T17:36:19.019Z,1.00
2023-05-09T17:39:25.474Z,0.70
2023-05-09T17:42:38.755Z,0.70
2023-05-09T17:45:41.302Z,0.60
2023-05-09T17:48:43.738Z,0.97
2023-05-09T17:51:45.955Z,2.25
2023-05-09T17:54:47.962Z,1.13
2023-05-09T17:57:49.739Z,0.60
2023-05-09T18:00:55.328Z,0.60
2023-05-09T18:03:57.850Z,0.70
2023-05-09T18:06:59.897Z,2.03
2023-05-09T18:10:09.486Z,1.52
2023-05-09T18:13:14.345Z,1.55
2023-05-09T18:16:16.289Z,2.33
2023-05-09T18:19:18.271Z,2.22
2023-05-09T18:22:26.439Z,1.80
2023-05-09T18:25:28.413Z,1.33
2023-05-09T18:28:36.818Z,2.15
2023-05-09T18:31:39.835Z,2.33
2023-05-09T18:34:42.955Z,2.20
2023-05-09T18:37:44.806Z,2.13
2023-05-09T18:40:47.541Z,2.47
2023-05-09T18:43:49.658Z,1.60
2023-05-09T18:46:53.730Z,3.65
2023-05-09T18:49:55.530Z,1.92
2023-05-09T18:52:57.618Z,2.17
2023-05-09T18:55:59.864Z,2.38
2023-05-09T18:59:01.667Z,1.83
2023-05-09T19:02:03.468Z,2.30
2023-05-09T19:05:17.224Z,2.55
2023-05-09T19:08:19.087Z,2.20
2023-05-09T19:11:22.103Z,3.78
2023-05-09T19:14:24.103Z,2.30
2023-05-09T19:17:26.819Z,6.78
2023-05-09T19:20:29.823Z,6.15
2023-05-09T19:23:31.835Z,4.80
2023-05-09T19:26:33.946Z,3.97
2023-05-09T19:29:36.866Z,3.88
2023-05-09T19:32:38.720Z,4.72
2023-05-09T19:35:44.464Z,3.58
2023-05-09T19:38:46.803Z,3.08
2023-05-09T19:41:49.595Z,2.58
2023-05-09T19:44:53.296Z,3.30
2023-05-09T19:47:56.582Z,2.72
2023-05-09T19:54:01.175Z,3.80
2023-05-09T19:57:06.337Z,4.68
2023-05-09T20:00:11.938Z,4.10
2023-05-09T20:03:14.288Z,3.60
2023-05-09T20:06:20.310Z,3.83
2023-05-09T20:09:22.236Z,4.03
2023-05-09T20:12:27.908Z,4.65
2023-05-09T20:15:31.359Z,4.68
2023-05-09T20:18:33.834Z,5.05
2023-05-09T20:21:35.896Z,5.80
2023-05-09T20:24:37.944Z,7.43
2023-05-09T20:27:39.700Z,4.95
2023-05-09T20:30:43.316Z,5.50
2023-05-09T20:33:45.157Z,5.80
2023-05-09T20:36:51.615Z,6.00
2023-05-09T20:39:53.591Z,5.85
2023-05-09T20:42:55.481Z,6.95
2023-05-09T20:45:58.685Z,5.88
2023-05-09T20:49:01.571Z,6.05
2023-05-09T20:52:03.473Z,6.07
2023-05-09T20:55:05.998Z,6.43
2023-05-09T20:58:07.863Z,6.47
2023-05-09T21:01:16.017Z,6.30
2023-05-09T21:04:18.110Z,7.90
2023-05-09T21:07:26.135Z,6.47
2023-05-09T21:10:27.842Z,6.82
2023-05-09T21:13:34.415Z,7.32
2023-05-09T21:16:36.326Z,7.40
2023-05-09T21:19:38.922Z,7.63
2023-05-09T21:22:40.898Z,7.17
2023-05-09T21:25:43.672Z,8.23
2023-05-09T21:28:45.428Z,8.35
2023-05-09T21:31:48.049Z,8.10
2023-05-09T21:34:50.079Z,9.77
2023-05-09T21:37:54.938Z,8.30
2023-05-09T21:40:58.260Z,9.52
2023-05-09T21:44:00.443Z,9.13
2023-05-09T21:47:02.296Z,9.13
2023-05-09T21:50:06.174Z,9.68
2023-05-09T21:53:08.657Z,10.43
2023-05-09T21:56:15.193Z,10.37
2023-05-09T21:59:20.790Z,11.10
2023-05-09T22:02:28.977Z,10.38
2023-05-09T22:05:31.351Z,10.38
2023-05-09T22:08:33.514Z,10.55
2023-05-09T22:11:36.479Z,10.60
2023-05-09T22:14:45.379Z,11.82
2023-05-09T22:17:57.370Z,11.82
2023-05-09T22:21:01.757Z,12.30
2023-05-09T22:24:03.717Z,12.48
2023-05-09T22:27:06.484Z,12.13
2023-05-09T22:30:12.401Z,13.00
2023-05-09T22:33:17.674Z,13.00
2023-05-09T22:36:25.773Z,13.93
2023-05-09T22:39:29.436Z,13.50
2023-05-09T22:42:31.694Z,13.10
2023-05-09T22:45:41.815Z,12.18
2023-05-09T22:48:43.558Z,13.75
2023-05-09T22:51:45.759Z,13.65
2023-05-09T22:54:47.526Z,13.90
2023-05-09T22:57:50.162Z,15.20
2023-05-09T23:00:52.108Z,14.37
2023-05-09T23:03:53.948Z,15.70
2023-05-09T23:06:56.144Z,14.63
2023-05-09T23:09:58.266Z,14.25
2023-05-09T23:13:00.063Z,15.10
2023-05-09T23:16:02.900Z,15.18
2023-05-09T23:19:04.776Z,13.13
2023-05-09T23:22:06.601Z,12.45
2023-05-09T23:25:09.336Z,12.57
2023-05-09T23:28:11.376Z,10.40
2023-05-09T23:31:13.227Z,10.95
2023-05-09T23:34:16.041Z,12.25
2023-05-09T23:37:18.146Z,11.30
2023-05-09T23:40:22.373Z,11.27
2023-05-09T23:43:25.144Z,14.20
2023-05-09T23:46:31.798Z,7.65
2023-05-09T23:49:33.576Z,9.68
2023-05-09T23:52:40.032Z,12.50
2023-05-09T23:55:41.842Z,8.55
2023-05-09T23:58:52.449Z,8.43
